sensor_id;sensor_type;location;lat;lon;timestamp;pressure;altitude;pressure_sealevel;temperature;humidity
67434;BME280;54305;47.950;6.572;2023-02-28T00:01:00;94582.00;;;-2.22;63.16
67434;BME280;54305;47.950;6.572;2023-02-28T00:03:25;94590.56;;;-2.23;63.74
67434;BME280;54305;47.950;6.572;2023-02-28T00:05:50;94589.22;;;-2.30;64.31
67434;BME280;54305;47.950;6.572;2023-02-28T00:08:15;94582.94;;;-2.40;62.07
67434;BME280;54305;47.950;6.572;2023-02-28T00:10:43;94593.13;;;-2.40;63.28
67434;BME280;54305;47.950;6.572;2023-02-28T00:13:08;94587.38;;;-2.43;63.79
67434;BME280;54305;47.950;6.572;2023-02-28T00:15:33;94586.66;;;-2.45;64.21
67434;BME280;54305;47.950;6.572;2023-02-28T00:17:59;94590.19;;;-2.48;62.83
67434;BME280;54305;47.950;6.572;2023-02-28T00:20:24;94582.34;;;-2.60;64.58
67434;BME280;54305;47.950;6.572;2023-02-28T00:22:50;94586.28;;;-2.55;63.90
67434;BME280;54305;47.950;6.572;2023-02-28T00:25:17;94577.13;;;-2.59;64.23
67434;BME280;54305;47.950;6.572;2023-02-28T00:27:43;94588.47;;;-2.64;64.67
67434;BME280;54305;47.950;6.572;2023-02-28T00:30:12;94594.69;;;-2.70;65.11
67434;BME280;54305;47.950;6.572;2023-02-28T00:32:37;94595.84;;;-2.75;65.38
67434;BME280;54305;47.950;6.572;2023-02-28T00:35:03;94597.81;;;-2.80;65.03
67434;BME280;54305;47.950;6.572;2023-02-28T00:37:28;94589.53;;;-2.85;64.95
67434;BME280;54305;47.950;6.572;2023-02-28T00:39:54;94589.41;;;-2.82;65.05
67434;BME280;54305;47.950;6.572;2023-02-28T00:42:19;94586.19;;;-2.86;65.27
67434;BME280;54305;47.950;6.572;2023-02-28T00:44:44;94585.53;;;-2.89;66.17
67434;BME280;54305;47.950;6.572;2023-02-28T00:47:09;94582.88;;;-2.88;65.36
67434;BME280;54305;47.950;6.572;2023-02-28T00:49:35;94584.09;;;-2.95;65.88
67434;BME280;54305;47.950;6.572;2023-02-28T00:52:00;94586.34;;;-3.06;66.68
67434;BME280;54305;47.950;6.572;2023-02-28T00:54:25;94582.91;;;-3.05;66.86
67434;BME280;54305;47.950;6.572;2023-02-28T00:56:51;94583.03;;;-3.08;66.25
67434;BME280;54305;47.950;6.572;2023-02-28T00:59:16;94581.25;;;-3.06;66.61
67434;BME280;54305;47.950;6.572;2023-02-28T01:01:42;94583.72;;;-3.04;65.93
67434;BME280;54305;47.950;6.572;2023-02-28T01:04:08;94576.31;;;-3.09;67.09
67434;BME280;54305;47.950;6.572;2023-02-28T01:06:33;94581.69;;;-3.15;67.14
67434;BME280;54305;47.950;6.572;2023-02-28T01:08:59;94581.56;;;-3.12;67.22
67434;BME280;54305;47.950;6.572;2023-02-28T01:11:25;94580.34;;;-3.22;68.08
67434;BME280;54305;47.950;6.572;2023-02-28T01:13:50;94575.41;;;-3.25;67.11
67434;BME280;54305;47.950;6.572;2023-02-28T01:16:16;94580.56;;;-3.26;67.82
67434;BME280;54305;47.950;6.572;2023-02-28T01:18:42;94588.22;;;-3.26;67.12
67434;BME280;54305;47.950;6.572;2023-02-28T01:21:11;94584.38;;;-3.35;69.01
67434;BME280;54305;47.950;6.572;2023-02-28T01:23:37;94588.59;;;-3.34;68.76
67434;BME280;54305;47.950;6.572;2023-02-28T01:26:04;94586.03;;;-3.34;68.64
67434;BME280;54305;47.950;6.572;2023-02-28T01:28:29;94580.09;;;-3.34;67.88
67434;BME280;54305;47.950;6.572;2023-02-28T01:30:54;94589.47;;;-3.35;67.75
67434;BME280;54305;47.950;6.572;2023-02-28T01:33:20;94587.75;;;-3.34;68.56
67434;BME280;54305;47.950;6.572;2023-02-28T01:35:45;94592.94;;;-3.36;68.93
67434;BME280;54305;47.950;6.572;2023-02-28T01:38:10;94601.59;;;-3.40;68.68
67434;BME280;54305;47.950;6.572;2023-02-28T01:40:35;94596.59;;;-3.41;69.26
67434;BME280;54305;47.950;6.572;2023-02-28T01:43:01;94593.19;;;-3.42;69.63
67434;BME280;54305;47.950;6.572;2023-02-28T01:45:29;94597.69;;;-3.47;69.15
67434;BME280;54305;47.950;6.572;2023-02-28T01:47:58;94595.00;;;-3.44;70.03
67434;BME280;54305;47.950;6.572;2023-02-28T01:50:26;94591.84;;;-3.49;70.22
67434;BME280;54305;47.950;6.572;2023-02-28T01:52:53;94588.72;;;-3.54;70.47
67434;BME280;54305;47.950;6.572;2023-02-28T01:55:21;94593.94;;;-3.57;70.27
67434;BME280;54305;47.950;6.572;2023-02-28T01:57:48;94587.94;;;-3.56;70.40
67434;BME280;54305;47.950;6.572;2023-02-28T02:00:16;94590.94;;;-3.65;71.03
67434;BME280;54305;47.950;6.572;2023-02-28T02:02:45;94591.50;;;-3.77;71.78
67434;BME280;54305;47.950;6.572;2023-02-28T02:05:15;94588.88;;;-3.75;72.40
67434;BME280;54305;47.950;6.572;2023-02-28T02:07:41;94590.53;;;-3.74;71.64
67434;BME280;54305;47.950;6.572;2023-02-28T02:10:12;94577.88;;;-3.76;70.76
67434;BME280;54305;47.950;6.572;2023-02-28T02:17:51;94584.00;;;-3.80;71.98
67434;BME280;54305;47.950;6.572;2023-02-28T02:23:02;94581.91;;;-3.89;72.26
67434;BME280;54305;47.950;6.572;2023-02-28T02:33:31;94584.66;;;-4.12;73.17
67434;BME280;54305;47.950;6.572;2023-02-28T02:36:32;94583.16;;;-4.16;73.09
67434;BME280;54305;47.950;6.572;2023-02-28T02:38:48;94590.91;;;-4.19;72.55
67434;BME280;54305;47.950;6.572;2023-02-28T02:41:28;94586.59;;;-4.17;72.16
67434;BME280;54305;47.950;6.572;2023-02-28T02:44:05;94587.22;;;-4.12;72.14
67434;BME280;54305;47.950;6.572;2023-02-28T02:46:37;94588.91;;;-4.12;72.31
67434;BME280;54305;47.950;6.572;2023-02-28T02:49:04;94587.63;;;-4.21;72.81
67434;BME280;54305;47.950;6.572;2023-02-28T02:51:31;94581.63;;;-4.20;73.32
67434;BME280;54305;47.950;6.572;2023-02-28T02:53:59;94583.69;;;-4.28;74.14
67434;BME280;54305;47.950;6.572;2023-02-28T02:56:27;94577.78;;;-4.28;73.87
67434;BME280;54305;47.950;6.572;2023-02-28T02:58:54;94584.56;;;-4.29;73.93
67434;BME280;54305;47.950;6.572;2023-02-28T03:01:21;94584.72;;;-4.32;73.86
67434;BME280;54305;47.950;6.572;2023-02-28T03:04:15;94588.75;;;-4.28;74.33
67434;BME280;54305;47.950;6.572;2023-02-28T03:06:38;94577.31;;;-4.18;73.82
67434;BME280;54305;47.950;6.572;2023-02-28T03:09:03;94578.34;;;-4.22;74.16
67434;BME280;54305;47.950;6.572;2023-02-28T03:11:29;94579.56;;;-4.30;74.62
67434;BME280;54305;47.950;6.572;2023-02-28T03:26:29;94584.22;;;-4.21;77.32
67434;BME280;54305;47.950;6.572;2023-02-28T03:31:30;94579.56;;;-4.12;77.42
67434;BME280;54305;47.950;6.572;2023-02-28T03:33:59;94580.94;;;-4.05;77.89
67434;BME280;54305;47.950;6.572;2023-02-28T03:36:30;94576.53;;;-4.01;77.33
67434;BME280;54305;47.950;6.572;2023-02-28T03:38:59;94582.31;;;-3.98;76.62
67434;BME280;54305;47.950;6.572;2023-02-28T03:41:47;94574.53;;;-3.95;77.67
67434;BME280;54305;47.950;6.572;2023-02-28T03:44:20;94568.56;;;-3.94;77.63
67434;BME280;54305;47.950;6.572;2023-02-28T03:49:32;94576.53;;;-3.83;78.60
67434;BME280;54305;47.950;6.572;2023-02-28T03:51:59;94576.22;;;-3.77;78.19
67434;BME280;54305;47.950;6.572;2023-02-28T03:54:30;94572.66;;;-3.73;77.61
67434;BME280;54305;47.950;6.572;2023-02-28T03:57:03;94582.53;;;-3.67;78.03
67434;BME280;54305;47.950;6.572;2023-02-28T03:59:32;94582.53;;;-3.67;78.45
67434;BME280;54305;47.950;6.572;2023-02-28T04:01:59;94584.06;;;-3.63;78.63
67434;BME280;54305;47.950;6.572;2023-02-28T04:04:24;94589.97;;;-3.62;78.22
67434;BME280;54305;47.950;6.572;2023-02-28T04:06:50;94587.34;;;-3.61;78.52
67434;BME280;54305;47.950;6.572;2023-02-28T04:09:16;94584.44;;;-3.53;79.11
67434;BME280;54305;47.950;6.572;2023-02-28T04:11:42;94586.78;;;-3.49;77.74
67434;BME280;54305;47.950;6.572;2023-02-28T04:14:09;94581.06;;;-3.54;77.77
67434;BME280;54305;47.950;6.572;2023-02-28T04:16:36;94588.19;;;-3.43;77.44
67434;BME280;54305;47.950;6.572;2023-02-28T04:19:04;94588.88;;;-3.40;77.57
67434;BME280;54305;47.950;6.572;2023-02-28T04:21:41;94584.69;;;-3.41;77.93
67434;BME280;54305;47.950;6.572;2023-02-28T04:24:07;94581.38;;;-3.43;77.79
67434;BME280;54305;47.950;6.572;2023-02-28T04:26:33;94581.38;;;-3.43;76.75
67434;BME280;54305;47.950;6.572;2023-02-28T04:28:59;94581.25;;;-3.40;77.58
67434;BME280;54305;47.950;6.572;2023-02-28T04:31:24;94583.03;;;-3.42;78.27
67434;BME280;54305;47.950;6.572;2023-02-28T04:33:49;94584.53;;;-3.38;77.70
67434;BME280;54305;47.950;6.572;2023-02-28T04:36:15;94587.00;;;-3.36;76.96
67434;BME280;54305;47.950;6.572;2023-02-28T04:38:42;94582.44;;;-3.30;76.11
67434;BME280;54305;47.950;6.572;2023-02-28T04:41:08;94579.13;;;-3.32;76.10
67434;BME280;54305;47.950;6.572;2023-02-28T04:43:33;94579.91;;;-3.30;77.64
67434;BME280;54305;47.950;6.572;2023-02-28T04:46:00;94584.09;;;-3.29;77.39
67434;BME280;54305;47.950;6.572;2023-02-28T04:48:29;94578.84;;;-3.26;77.62
67434;BME280;54305;47.950;6.572;2023-02-28T04:50:55;94585.16;;;-3.16;76.03
67434;BME280;54305;47.950;6.572;2023-02-28T04:53:20;94583.66;;;-3.20;76.93
67434;BME280;54305;47.950;6.572;2023-02-28T04:55:46;94586.34;;;-3.23;77.44
67434;BME280;54305;47.950;6.572;2023-02-28T04:58:12;94588.06;;;-3.23;77.94
67434;BME280;54305;47.950;6.572;2023-02-28T05:00:37;94580.34;;;-3.22;78.84
67434;BME280;54305;47.950;6.572;2023-02-28T05:03:02;94580.34;;;-3.22;77.77
67434;BME280;54305;47.950;6.572;2023-02-28T05:05:27;94576.22;;;-3.24;78.17
67434;BME280;54305;47.950;6.572;2023-02-28T05:07:53;94573.78;;;-3.26;76.95
67434;BME280;54305;47.950;6.572;2023-02-28T05:10:20;94579.34;;;-3.19;78.31
67434;BME280;54305;47.950;6.572;2023-02-28T05:12:46;94582.69;;;-3.17;77.47
67434;BME280;54305;47.950;6.572;2023-02-28T05:15:12;94580.34;;;-3.22;76.59
67434;BME280;54305;47.950;6.572;2023-02-28T05:17:38;94582.50;;;-3.14;77.53
67434;BME280;54305;47.950;6.572;2023-02-28T05:20:03;94578.38;;;-3.17;77.28
67434;BME280;54305;47.950;6.572;2023-02-28T05:22:29;94580.94;;;-3.17;77.75
67434;BME280;54305;47.950;6.572;2023-02-28T05:24:55;94575.63;;;-3.12;76.81
67434;BME280;54305;47.950;6.572;2023-02-28T05:27:20;94581.69;;;-3.15;76.89
67434;BME280;54305;47.950;6.572;2023-02-28T05:29:45;94584.84;;;-3.10;78.03
67434;BME280;54305;47.950;6.572;2023-02-28T05:32:11;94589.22;;;-3.12;77.61
67434;BME280;54305;47.950;6.572;2023-02-28T05:34:40;94586.50;;;-3.09;77.33
67434;BME280;54305;47.950;6.572;2023-02-28T05:37:06;94583.22;;;-3.11;76.66
67434;BME280;54305;47.950;6.572;2023-02-28T05:39:32;94581.56;;;-3.12;76.38
67434;BME280;54305;47.950;6.572;2023-02-28T05:41:57;94580.41;;;-3.06;77.39
67434;BME280;54305;47.950;6.572;2023-02-28T05:44:22;94579.75;;;-3.10;77.08
67434;BME280;54305;47.950;6.572;2023-02-28T05:46:48;94576.31;;;-3.09;76.75
67434;BME280;54305;47.950;6.572;2023-02-28T05:49:13;94577.28;;;-3.11;77.51
67434;BME280;54305;47.950;6.572;2023-02-28T05:51:38;94572.84;;;-3.08;76.89
67434;BME280;54305;47.950;6.572;2023-02-28T05:54:04;94583.13;;;-3.09;76.78
67434;BME280;54305;47.950;6.572;2023-02-28T05:56:30;94579.63;;;-3.07;77.04
67434;BME280;54305;47.950;6.572;2023-02-28T05:58:55;94587.09;;;-3.04;77.47
67434;BME280;54305;47.950;6.572;2023-02-28T06:01:22;94579.44;;;-3.04;77.27
67434;BME280;54305;47.950;6.572;2023-02-28T06:03:47;94584.53;;;-3.04;77.44
67434;BME280;54305;47.950;6.572;2023-02-28T06:06:13;94591.28;;;-3.03;78.17
67434;BME280;54305;47.950;6.572;2023-02-28T06:08:38;94584.72;;;-3.07;77.35
67434;BME280;54305;47.950;6.572;2023-02-28T06:11:03;94592.94;;;-3.02;77.68
67434;BME280;54305;47.950;6.572;2023-02-28T06:13:31;94594.72;;;-3.04;78.69
67434;BME280;54305;47.950;6.572;2023-02-28T06:15:59;94596.91;;;-2.96;77.53
67434;BME280;54305;47.950;6.572;2023-02-28T06:18:25;94601.31;;;-3.00;77.82
67434;BME280;54305;47.950;6.572;2023-02-28T06:20:53;94599.50;;;-2.98;77.43
67434;BME280;54305;47.950;6.572;2023-02-28T06:23:22;94597.88;;;-2.99;78.54
67434;BME280;54305;47.950;6.572;2023-02-28T06:25:47;94593.75;;;-3.01;77.90
67434;BME280;54305;47.950;6.572;2023-02-28T06:28:12;94598.84;;;-3.01;77.79
67434;BME280;54305;47.950;6.572;2023-02-28T06:30:38;94600.72;;;-3.05;78.54
67434;BME280;54305;47.950;6.572;2023-02-28T06:33:04;94596.69;;;-3.09;78.33
67434;BME280;54305;47.950;6.572;2023-02-28T06:35:29;94603.41;;;-3.08;79.93
67434;BME280;54305;47.950;6.572;2023-02-28T06:37:54;94604.69;;;-3.16;79.82
67434;BME280;54305;47.950;6.572;2023-02-28T06:40:20;94605.78;;;-3.22;80.27
67434;BME280;54305;47.950;6.572;2023-02-28T06:42:45;94603.84;;;-3.17;80.47
67434;BME280;54305;47.950;6.572;2023-02-28T06:45:11;94606.25;;;-3.14;79.42
67434;BME280;54305;47.950;6.572;2023-02-28T06:47:37;94606.50;;;-3.18;79.16
67434;BME280;54305;47.950;6.572;2023-02-28T06:50:03;94606.09;;;-3.28;80.45
67434;BME280;54305;47.950;6.572;2023-02-28T06:52:29;94609.91;;;-3.36;81.11
67434;BME280;54305;47.950;6.572;2023-02-28T06:54:54;94610.88;;;-3.39;81.13
67434;BME280;54305;47.950;6.572;2023-02-28T06:57:26;94613.88;;;-3.48;81.68
67434;BME280;54305;47.950;6.572;2023-02-28T06:59:52;94624.88;;;-3.47;82.42
67434;BME280;54305;47.950;6.572;2023-02-28T07:02:17;94613.38;;;-3.56;82.64
67434;BME280;54305;47.950;6.572;2023-02-28T07:04:42;94611.63;;;-3.54;83.10
67434;BME280;54305;47.950;6.572;2023-02-28T07:07:09;94621.38;;;-3.45;82.09
67434;BME280;54305;47.950;6.572;2023-02-28T07:09:34;94616.72;;;-3.37;82.38
67434;BME280;54305;47.950;6.572;2023-02-28T07:12:00;94616.03;;;-3.40;82.07
67434;BME280;54305;47.950;6.572;2023-02-28T07:14:25;94621.06;;;-3.39;82.28
67434;BME280;54305;47.950;6.572;2023-02-28T07:16:51;94623.53;;;-3.37;82.26
67434;BME280;54305;47.950;6.572;2023-02-28T07:19:16;94630.06;;;-3.32;82.43
67434;BME280;54305;47.950;6.572;2023-02-28T07:21:41;94623.19;;;-3.30;81.72
67434;BME280;54305;47.950;6.572;2023-02-28T07:24:10;94631.56;;;-3.28;81.54
67434;BME280;54305;47.950;6.572;2023-02-28T07:26:35;94627.31;;;-3.27;81.79
67434;BME280;54305;47.950;6.572;2023-02-28T07:29:00;94632.41;;;-3.27;82.13
67434;BME280;54305;47.950;6.572;2023-02-28T07:31:27;94621.38;;;-3.28;82.56
67434;BME280;54305;47.950;6.572;2023-02-28T07:33:52;94634.88;;;-3.26;82.42
67434;BME280;54305;47.950;6.572;2023-02-28T07:36:19;94635.00;;;-3.29;82.86
67434;BME280;54305;47.950;6.572;2023-02-28T07:38:45;94636.50;;;-3.25;82.01
67434;BME280;54305;47.950;6.572;2023-02-28T07:41:12;94636.09;;;-3.16;83.28
67434;BME280;54305;47.950;6.572;2023-02-28T07:43:38;94631.00;;;-3.16;82.21
67434;BME280;54305;47.950;6.572;2023-02-28T07:46:04;94641.00;;;-3.13;82.97
67434;BME280;54305;47.950;6.572;2023-02-28T07:48:30;94634.13;;;-3.11;83.05
67434;BME280;54305;47.950;6.572;2023-02-28T07:50:56;94627.09;;;-3.06;82.86
67434;BME280;54305;47.950;6.572;2023-02-28T07:53:21;94632.78;;;-3.01;82.12
67434;BME280;54305;47.950;6.572;2023-02-28T07:55:47;94639.41;;;-2.97;82.18
67434;BME280;54305;47.950;6.572;2023-02-28T07:58:12;94633.09;;;-2.90;81.68
67434;BME280;54305;47.950;6.572;2023-02-28T08:00:37;94634.03;;;-2.58;82.29
67434;BME280;54305;47.950;6.572;2023-02-28T08:03:03;94627.91;;;-2.22;79.77
67434;BME280;54305;47.950;6.572;2023-02-28T08:05:28;94623.34;;;-1.84;78.17
67434;BME280;54305;47.950;6.572;2023-02-28T08:07:55;94626.22;;;-1.44;76.70
67434;BME280;54305;47.950;6.572;2023-02-28T08:10:20;94630.22;;;-1.09;74.74
67434;BME280;54305;47.950;6.572;2023-02-28T08:12:45;94624.25;;;-0.94;72.94
67434;BME280;54305;47.950;6.572;2023-02-28T08:15:10;94630.72;;;-0.59;72.74
67434;BME280;54305;47.950;6.572;2023-02-28T08:17:36;94631.97;;;-0.36;72.19
67434;BME280;54305;47.950;6.572;2023-02-28T08:20:01;94635.91;;;-0.31;69.57
67434;BME280;54305;47.950;6.572;2023-02-28T08:22:26;94628.97;;;-0.01;71.30
67434;BME280;54305;47.950;6.572;2023-02-28T08:24:51;94633.25;;;0.13;68.44
67434;BME280;54305;47.950;6.572;2023-02-28T08:27:17;94636.38;;;0.58;69.00
67434;BME280;54305;47.950;6.572;2023-02-28T08:29:42;94638.44;;;0.80;67.00
67434;BME280;54305;47.950;6.572;2023-02-28T08:32:07;94636.44;;;0.98;66.34
67434;BME280;54305;47.950;6.572;2023-02-28T08:34:32;94641.88;;;1.20;66.06
67434;BME280;54305;47.950;6.572;2023-02-28T08:36:58;94642.19;;;1.01;64.65
67434;BME280;54305;47.950;6.572;2023-02-28T08:39:23;94641.72;;;0.82;65.42
67434;BME280;54305;47.950;6.572;2023-02-28T08:41:48;94650.56;;;0.64;66.36
67434;BME280;54305;47.950;6.572;2023-02-28T08:44:13;94645.91;;;0.57;66.21
67434;BME280;54305;47.950;6.572;2023-02-28T08:46:39;94646.59;;;0.73;66.35
67434;BME280;54305;47.950;6.572;2023-02-28T08:49:04;94645.16;;;0.68;66.01
67434;BME280;54305;47.950;6.572;2023-02-28T08:51:29;94651.78;;;0.44;64.58
67434;BME280;54305;47.950;6.572;2023-02-28T08:53:56;94643.03;;;0.20;66.89
67434;BME280;54305;47.950;6.572;2023-02-28T08:56:22;94657.75;;;0.45;67.16
67434;BME280;54305;47.950;6.572;2023-02-28T08:58:48;94649.19;;;0.58;66.88
67434;BME280;54305;47.950;6.572;2023-02-28T09:01:24;94649.19;;;0.58;66.48
67434;BME280;54305;47.950;6.572;2023-02-28T09:03:50;94651.22;;;0.53;67.28
67434;BME280;54305;47.950;6.572;2023-02-28T09:06:16;94649.63;;;0.24;65.88
67434;BME280;54305;47.950;6.572;2023-02-28T09:08:42;94654.72;;;0.38;66.06
67434;BME280;54305;47.950;6.572;2023-02-28T09:11:07;94653.47;;;0.17;65.28
67434;BME280;54305;47.950;6.572;2023-02-28T09:13:32;94660.78;;;0.09;66.31
67434;BME280;54305;47.950;6.572;2023-02-28T09:16:02;94660.78;;;0.38;66.60
67434;BME280;54305;47.950;6.572;2023-02-28T09:18:28;94665.34;;;0.18;65.78
67434;BME280;54305;47.950;6.572;2023-02-28T09:20:53;94658.22;;;0.23;66.09
67434;BME280;54305;47.950;6.572;2023-02-28T09:23:19;94660.03;;;0.21;67.69
67434;BME280;54305;47.950;6.572;2023-02-28T09:25:45;94665.16;;;0.21;67.30
67434;BME280;54305;47.950;6.572;2023-02-28T09:28:11;94671.19;;;0.34;67.49
67434;BME280;54305;47.950;6.572;2023-02-28T09:30:36;94669.94;;;0.28;65.78
67434;BME280;54305;47.950;6.572;2023-02-28T09:33:02;94665.06;;;0.37;67.73
67434;BME280;54305;47.950;6.572;2023-02-28T09:35:27;94665.84;;;0.66;67.45
67434;BME280;54305;47.950;6.572;2023-02-28T09:37:53;94667.66;;;0.77;66.00
67434;BME280;54305;47.950;6.572;2023-02-28T09:40:19;94665.00;;;1.06;63.70
67434;BME280;54305;47.950;6.572;2023-02-28T09:42:46;94674.72;;;0.74;64.28
67434;BME280;54305;47.950;6.572;2023-02-28T09:47:50;94672.66;;;0.38;65.52
67434;BME280;54305;47.950;6.572;2023-02-28T09:52:45;94686.06;;;0.56;66.68
67434;BME280;54305;47.950;6.572;2023-02-28T09:57:45;94690.81;;;0.62;64.03
67434;BME280;54305;47.950;6.572;2023-02-28T10:00:15;94684.50;;;1.08;64.28
67434;BME280;54305;47.950;6.572;2023-02-28T10:02:46;94685.16;;;1.24;63.55
67434;BME280;54305;47.950;6.572;2023-02-28T10:05:15;94678.31;;;1.89;62.84
67434;BME280;54305;47.950;6.572;2023-02-28T10:10:43;94673.41;;;2.11;59.87
67434;BME280;54305;47.950;6.572;2023-02-28T10:13:52;94678.13;;;2.17;59.49
67434;BME280;54305;47.950;6.572;2023-02-28T10:15:58;94690.75;;;2.20;59.49
67434;BME280;54305;47.950;6.572;2023-02-28T10:18:27;94679.78;;;1.93;60.23
67434;BME280;54305;47.950;6.572;2023-02-28T10:20:55;94682.75;;;2.12;60.55
67434;BME280;54305;47.950;6.572;2023-02-28T10:23:39;94691.47;;;1.72;58.72
67434;BME280;54305;47.950;6.572;2023-02-28T10:26:12;94688.59;;;1.89;60.35
67434;BME280;54305;47.950;6.572;2023-02-28T10:28:38;94688.06;;;1.84;59.09
67434;BME280;54305;47.950;6.572;2023-02-28T10:31:03;94687.97;;;1.85;61.83
67434;BME280;54305;47.950;6.572;2023-02-28T10:33:33;94689.44;;;1.89;61.32
67434;BME280;54305;47.950;6.572;2023-02-28T10:36:01;94684.59;;;1.97;60.60
67434;BME280;54305;47.950;6.572;2023-02-28T10:38:28;94685.22;;;2.01;61.78
67434;BME280;54305;47.950;6.572;2023-02-28T10:43:38;94689.69;;;1.60;62.07
67434;BME280;54305;47.950;6.572;2023-02-28T10:48:39;94695.09;;;1.43;61.33
67434;BME280;54305;47.950;6.572;2023-02-28T10:51:07;94699.97;;;1.33;61.86
67434;BME280;54305;47.950;6.572;2023-02-28T11:01:14;94687.56;;;2.04;59.38
67434;BME280;54305;47.950;6.572;2023-02-28T11:03:40;94693.53;;;2.29;58.85
67434;BME280;54305;47.950;6.572;2023-02-28T11:06:06;94690.66;;;2.34;58.90
67434;BME280;54305;47.950;6.572;2023-02-28T11:08:33;94687.69;;;2.40;58.54
67434;BME280;54305;47.950;6.572;2023-02-28T11:11:00;94685.44;;;2.23;58.90
67434;BME280;54305;47.950;6.572;2023-02-28T11:13:30;94678.56;;;2.23;59.05
67434;BME280;54305;47.950;6.572;2023-02-28T11:15:57;94680.59;;;2.31;59.91
67434;BME280;54305;47.950;6.572;2023-02-28T11:20:50;94684.50;;;2.11;58.91
67434;BME280;54305;47.950;6.572;2023-02-28T11:23:16;94685.44;;;2.23;59.06
67434;BME280;54305;47.950;6.572;2023-02-28T11:25:54;94687.81;;;2.13;59.25
67434;BME280;54305;47.950;6.572;2023-02-28T11:33:28;94682.25;;;2.07;60.50
67434;BME280;54305;47.950;6.572;2023-02-28T11:36:08;94684.06;;;2.05;60.46
67434;BME280;54305;47.950;6.572;2023-02-28T11:38:35;94683.97;;;2.19;60.29
67434;BME280;54305;47.950;6.572;2023-02-28T11:41:13;94682.66;;;2.26;59.98
67434;BME280;54305;47.950;6.572;2023-02-28T11:46:41;94675.34;;;2.20;59.10
67434;BME280;54305;47.950;6.572;2023-02-28T11:49:23;94682.03;;;2.22;59.69
67434;BME280;54305;47.950;6.572;2023-02-28T11:54:35;94674.81;;;2.52;58.94
67434;BME280;54305;47.950;6.572;2023-02-28T11:59:51;94674.53;;;2.80;60.26
67434;BME280;54305;47.950;6.572;2023-02-28T12:07:39;94672.34;;;2.51;59.94
67434;BME280;54305;47.950;6.572;2023-02-28T12:10:22;94679.56;;;2.33;58.33
67434;BME280;54305;47.950;6.572;2023-02-28T12:26:38;94684.50;;;2.24;61.60
67434;BME280;54305;47.950;6.572;2023-02-28T12:29:09;94691.28;;;2.50;60.89
67434;BME280;54305;47.950;6.572;2023-02-28T12:31:38;94682.41;;;2.54;59.36
67434;BME280;54305;47.950;6.572;2023-02-28T12:34:10;94674.19;;;2.61;60.00
67434;BME280;54305;47.950;6.572;2023-02-28T12:36:37;94677.22;;;2.18;58.79
67434;BME280;54305;47.950;6.572;2023-02-28T12:39:04;94672.78;;;1.95;60.71
67434;BME280;54305;47.950;6.572;2023-02-28T12:41:47;94671.97;;;2.07;61.14
67434;BME280;54305;47.950;6.572;2023-02-28T12:44:17;94682.25;;;2.32;61.74
67434;BME280;54305;47.950;6.572;2023-02-28T12:46:45;94675.44;;;2.43;60.67
67434;BME280;54305;47.950;6.572;2023-02-28T12:49:15;94679.97;;;2.40;60.95
67434;BME280;54305;47.950;6.572;2023-02-28T12:51:42;94661.94;;;2.65;61.43
67434;BME280;54305;47.950;6.572;2023-02-28T12:57:18;94661.16;;;2.88;60.35
67434;BME280;54305;47.950;6.572;2023-02-28T12:59:52;94667.34;;;2.73;60.37
67434;BME280;54305;47.950;6.572;2023-02-28T13:02:41;94659.63;;;2.73;60.36
67434;BME280;54305;47.950;6.572;2023-02-28T13:05:22;94659.97;;;2.68;61.14
67434;BME280;54305;47.950;6.572;2023-02-28T13:10:24;94660.81;;;2.69;60.82
67434;BME280;54305;47.950;6.572;2023-02-28T13:12:51;94663.84;;;2.86;60.64
67434;BME280;54305;47.950;6.572;2023-02-28T13:17:41;94651.28;;;2.82;59.02
67434;BME280;54305;47.950;6.572;2023-02-28T13:20:17;94651.47;;;2.91;60.93
67434;BME280;54305;47.950;6.572;2023-02-28T13:22:44;94660.13;;;2.78;60.62
67434;BME280;54305;47.950;6.572;2023-02-28T13:27:47;94666.63;;;3.07;59.75
67434;BME280;54305;47.950;6.572;2023-02-28T13:35:43;94665.84;;;2.58;61.69
67434;BME280;54305;47.950;6.572;2023-02-28T13:38:15;94679.72;;;2.68;61.35
67434;BME280;54305;47.950;6.572;2023-02-28T13:40:40;94674.78;;;2.65;60.63
67434;BME280;54305;47.950;6.572;2023-02-28T13:43:07;94685.28;;;2.62;59.92
67434;BME280;54305;47.950;6.572;2023-02-28T13:45:33;94679.00;;;3.02;59.74
67434;BME280;54305;47.950;6.572;2023-02-28T13:48:04;94686.06;;;3.11;59.84
67434;BME280;54305;47.950;6.572;2023-02-28T13:50:31;94679.47;;;3.43;58.43
67434;BME280;54305;47.950;6.572;2023-02-28T13:57:57;94671.59;;;4.24;56.26
67434;BME280;54305;47.950;6.572;2023-02-28T14:00:35;94679.94;;;4.28;57.00
67434;BME280;54305;47.950;6.572;2023-02-28T14:05:34;94677.91;;;3.64;57.52
67434;BME280;54305;47.950;6.572;2023-02-28T14:08:16;94687.34;;;3.29;58.82
67434;BME280;54305;47.950;6.572;2023-02-28T14:10:46;94685.91;;;3.25;59.50
67434;BME280;54305;47.950;6.572;2023-02-28T14:13:14;94684.44;;;2.74;60.80
67434;BME280;54305;47.950;6.572;2023-02-28T14:15:59;94689.34;;;2.77;60.42
67434;BME280;54305;47.950;6.572;2023-02-28T14:21:28;94695.78;;;2.59;62.47
67434;BME280;54305;47.950;6.572;2023-02-28T14:26:33;94694.50;;;2.77;61.73
67434;BME280;54305;47.950;6.572;2023-02-28T14:36:45;94688.25;;;3.51;60.67
67434;BME280;54305;47.950;6.572;2023-02-28T14:39:14;94689.03;;;3.17;60.87
67434;BME280;54305;47.950;6.572;2023-02-28T14:41:40;94685.91;;;3.25;60.66
67434;BME280;54305;47.950;6.572;2023-02-28T14:44:39;94693.00;;;2.62;61.52
67434;BME280;54305;47.950;6.572;2023-02-28T14:46:59;94690.41;;;2.62;61.68
67434;BME280;54305;47.950;6.572;2023-02-28T14:49:36;94692.91;;;2.51;62.48
67434;BME280;54305;47.950;6.572;2023-02-28T14:54:35;94695.50;;;2.26;63.43
67434;BME280;54305;47.950;6.572;2023-02-28T14:57:00;94702.56;;;2.10;63.57
67434;BME280;54305;47.950;6.572;2023-02-28T14:59:29;94690.84;;;1.93;64.71
67434;BME280;54305;47.950;6.572;2023-02-28T15:02:17;94692.91;;;1.88;63.54
67434;BME280;54305;47.950;6.572;2023-02-28T15:04:43;94698.25;;;1.98;64.71
67434;BME280;54305;47.950;6.572;2023-02-28T15:07:13;94698.69;;;2.04;63.89
67434;BME280;54305;47.950;6.572;2023-02-28T15:09:38;94699.06;;;1.86;64.70
67434;BME280;54305;47.950;6.572;2023-02-28T15:12:04;94701.13;;;1.93;64.94
67434;BME280;54305;47.950;6.572;2023-02-28T15:14:29;94697.41;;;1.85;64.19
67434;BME280;54305;47.950;6.572;2023-02-28T15:17:00;94697.13;;;1.77;65.63
67434;BME280;54305;47.950;6.572;2023-02-28T15:19:30;94698.66;;;1.79;65.92